Rowena, Texas
Current Conditions -  °F | °C
As of 9:51 PM on Monday 22 Dec 2014 (Local Time) from KSJT Reporting Station
Clear Clear  
Wind Chill: 11°   Ceiling: Unl
Heat Index: 11°   Visibility: 10mi
Dew Point:   Wind: 7mph
Humidity: 57%   Direction: 40°NE
Pressure: 29.68"   Gusts: NA
Location:  31.65°N, 100.05°W
Report Text: KSJT 230351Z AUTO 04006KT 10SM CLR 11/03 A2968 RMK AO2 SLP042 T01110028
Loading
Personal Weather Stations






























Interactive Weather Map New forecast layout! Learn more

10-Day Weather Forecast

Advertisements
Track Severe Weather on mobile